Time;durP1;ratioP1;P1;durP2;ratioP2;P2;SDS_P1;SDS_P2;PMS_P1;PMS_P2;Temp;Humidity;BMP_temperature;BMP_pressure;BME280_temperature;BME280_humidity;BME280_pressure;Samples;Min_cycle;Max_cycle;Signal;HPM_P1;HPM_P2
2022/04/28 00:00:24;;;;;;;8.77;2.50;;;;;;;8.12;61.97;102140.91;5031935;28;20479;-60
2022/04/28 00:02:55;;;;;;;6.45;2.45;;;;;;;8.09;61.84;102135.66;5032663;28;20056;-61
2022/04/28 00:05:25;;;;;;;10.73;3.92;;;;;;;8.11;61.93;102136.56;5051215;28;20056;-60
2022/04/28 00:07:53;;;;;;;11.48;4.07;;;;;;;8.13;61.83;102128.88;5051907;28;20484;-60
2022/04/28 00:10:21;;;;;;;8.88;4.38;;;;;;;8.15;62.11;102125.47;5052178;28;20075;-61
2022/04/28 00:12:47;;;;;;;12.02;4.75;;;;;;;8.15;62.64;102125.47;5052105;28;20060;-60
2022/04/28 00:15:15;;;;;;;8.35;3.80;;;;;;;8.16;62.44;102116.88;5071531;28;20044;-60
2022/04/28 00:17:42;;;;;;;8.68;3.17;;;;;;;8.13;62.60;102111.66;5072712;28;20064;-60
2022/04/28 00:20:11;;;;;;;8.63;3.05;;;;;;;8.10;62.36;102111.59;5072466;28;20060;-60
2022/04/28 00:22:42;;;;;;;6.50;2.40;;;;;;;8.11;62.28;102107.28;5065195;28;20545;-61
2022/04/28 00:25:10;;;;;;;7.55;3.20;;;;;;;8.10;62.79;102101.25;5060991;28;20365;-61
2022/04/28 00:27:37;;;;;;;6.88;2.85;;;;;;;8.13;63.16;102103.91;5052425;28;20049;-61
2022/04/28 00:30:06;;;;;;;5.35;2.25;;;;;;;8.14;62.96;102113.41;5052417;28;20053;-61
2022/04/28 00:32:33;;;;;;;7.60;2.33;;;;;;;8.15;63.08;102120.31;5052200;28;20064;-61
2022/04/28 00:35:01;;;;;;;5.55;2.40;;;;;;;8.13;63.44;102111.66;5052241;28;20045;-61
2022/04/28 00:37:29;;;;;;;3.95;1.95;;;;;;;8.09;63.83;102119.28;5052466;28;20060;-60
2022/04/28 00:39:57;;;;;;;7.88;2.47;;;;;;;8.05;63.88;102123.50;5052142;28;20458;-60
2022/04/28 00:42:25;;;;;;;9.00;2.00;;;;;;;8.04;63.44;102128.66;5068099;28;20052;-60
2022/04/28 00:44:54;;;;;;;7.07;2.53;;;;;;;8.04;63.54;102126.94;5072130;28;20066;-60
2022/04/28 00:47:22;;;;;;;3.67;2.30;;;;;;;8.03;63.77;102125.19;5072216;28;20139;-60
2022/04/28 00:52:34;;;;;;;6.82;2.38;;;;;;;8.01;64.07;102128.56;5075710;28;20059;-60
2022/04/28 00:55:03;;;;;;;4.97;1.98;;;;;;;8.02;63.71;102122.56;5075519;28;20430;-60
2022/04/28 00:57:33;;;;;;;4.82;2.33;;;;;;;8.07;63.78;102126.13;5075468;28;20044;-60
2022/04/28 01:00:00;;;;;;;5.75;2.60;;;;;;;8.08;63.96;102117.56;5075262;28;20090;-61
2022/04/28 01:02:26;;;;;;;8.02;2.63;;;;;;;8.12;63.79;102124.53;5075263;28;20684;-60
2022/04/28 01:04:54;;;;;;;6.00;2.30;;;;;;;8.16;63.98;102121.19;5075601;28;20056;-61
2022/04/28 01:07:21;;;;;;;6.90;2.70;;;;;;;8.15;63.66;102125.47;5075740;28;20052;-60
2022/04/28 01:09:47;;;;;;;6.18;2.60;;;;;;;8.14;64.30;102123.72;5075698;28;20060;-60
2022/04/28 01:12:16;;;;;;;5.90;3.10;;;;;;;8.15;64.42;102120.31;5075271;28;20458;-60
2022/04/28 01:14:44;;;;;;;6.65;2.65;;;;;;;8.13;63.86;102116.81;5075151;28;20053;-61
2022/04/28 01:17:11;;;;;;;6.97;2.92;;;;;;;8.14;63.91;102113.41;5075216;28;20056;-60
2022/04/28 01:19:39;;;;;;;6.00;2.88;;;;;;;8.16;64.33;102121.19;5062330;28;20100;-60
2022/04/28 01:22:08;;;;;;;8.80;4.55;;;;;;;8.17;64.79;102103.13;5055094;28;20405;-60
2022/04/28 01:24:37;;;;;;;12.10;4.28;;;;;;;8.16;64.36;102101.41;5067367;28;20079;-60
2022/04/28 01:27:06;;;;;;;9.98;4.55;;;;;;;8.18;64.81;102104.00;5055335;28;20081;-60
2022/04/28 01:29:34;;;;;;;9.90;4.70;;;;;;;8.18;64.47;102104.88;5055395;28;20077;-60
2022/04/28 01:32:02;;;;;;;9.50;4.10;;;;;;;8.18;64.84;102104.88;5055316;28;20091;-61
2022/04/28 01:34:30;;;;;;;9.27;4.45;;;;;;;8.18;64.85;102099.72;5055102;28;20061;-60
2022/04/28 01:36:58;;;;;;;10.07;4.53;;;;;;;8.19;64.98;102100.59;5055056;28;20053;-60
2022/04/28 01:39:27;;;;;;;10.15;4.80;;;;;;;8.17;65.00;102092.81;5055022;28;20057;-60
2022/04/28 01:41:54;;;;;;;11.18;4.45;;;;;;;8.17;65.45;102097.97;5074384;28;20367;-60
2022/04/28 01:44:22;;;;;;;10.75;4.63;;;;;;;8.15;65.62;102094.47;5062067;28;20056;-60
2022/04/28 01:46:50;;;;;;;8.90;4.57;;;;;;;8.16;65.81;102091.06;5054713;28;20049;-60
2022/04/28 01:49:18;;;;;;;10.90;4.72;;;;;;;8.14;65.93;102085.00;5054825;28;20083;-60
2022/04/28 01:57:18;;;;;;;9.57;5.47;;;;;;;8.08;66.14;102084.84;5068324;28;20138;-60
2022/04/28 01:59:46;;;;;;;10.30;4.70;;;;;;;8.06;65.77;102076.19;5074605;28;20083;-60
2022/04/28 02:02:12;;;;;;;11.32;5.18;;;;;;;8.05;66.33;102086.50;5073757;28;20063;-60
2022/04/28 02:04:40;;;;;;;9.73;4.80;;;;;;;8.06;65.98;102089.09;5074530;28;20052;-60
2022/04/28 02:07:07;;;;;;;9.55;5.15;;;;;;;8.05;66.01;102087.38;5074590;28;20055;-61
2022/04/28 02:09:36;;;;;;;9.52;4.88;;;;;;;8.05;66.19;102092.53;5074552;28;20369;-60
2022/04/28 02:12:04;;;;;;;10.32;5.50;;;;;;;8.05;66.17;102087.38;5054605;28;20088;-60
2022/04/28 02:14:32;;;;;;;8.73;4.47;;;;;;;8.04;66.36;102090.78;5039258;28;20076;-60
2022/04/28 02:17:01;;;;;;;11.43;4.50;;;;;;;8.01;66.23;102097.59;5034198;28;20046;-60
2022/04/28 02:19:28;;;;;;;7.78;4.45;;;;;;;7.98;66.60;102090.63;5034159;28;20493;-60
2022/04/28 02:21:56;;;;;;;9.35;4.32;;;;;;;7.95;66.40;102090.56;5034380;28;20045;-60
2022/04/28 02:24:24;;;;;;;9.95;5.07;;;;;;;7.92;66.46;102090.50;5046311;28;20060;-60
2022/04/28 02:26:53;;;;;;;10.52;5.28;;;;;;;7.90;66.51;102092.16;5034118;28;20045;-60
2022/04/28 02:29:20;;;;;;;13.02;5.40;;;;;;;7.87;66.26;102081.78;5034168;28;20072;-60
2022/04/28 02:31:47;;;;;;;9.63;5.18;;;;;;;7.84;66.04;102089.44;5034135;28;20050;-60
2022/04/28 02:34:15;;;;;;;11.63;5.00;;;;;;;7.83;66.44;102090.28;5033899;28;20054;-60
2022/04/28 02:36:43;;;;;;;10.88;5.40;;;;;;;7.84;66.46;102087.72;5033690;28;20486;-60
2022/04/28 02:39:12;;;;;;;8.75;4.57;;;;;;;7.85;66.57;102086.03;5034161;28;20049;-60
2022/04/28 02:41:39;;;;;;;9.43;4.40;;;;;;;7.85;66.93;102083.44;5051517;28;20053;-60
2022/04/28 02:44:08;;;;;;;7.32;3.67;;;;;;;7.88;66.73;102078.34;5042546;28;20061;-60
2022/04/28 02:46:36;;;;;;;8.15;4.07;;;;;;;7.89;66.45;102077.50;5033838;28;20045;-60
2022/04/28 02:49:04;;;;;;;7.25;3.90;;;;;;;7.89;66.52;102075.81;5033783;28;20251;-60
2022/04/28 02:51:31;;;;;;;6.63;3.03;;;;;;;7.90;66.20;102071.50;5033213;28;20509;-60
2022/04/28 02:53:57;;;;;;;7.45;3.33;;;;;;;7.92;66.42;102075.00;5051290;28;20453;-60
2022/04/28 02:56:26;;;;;;;8.60;2.88;;;;;;;7.94;66.43;102073.31;5047437;28;20473;-60
2022/04/28 02:58:53;;;;;;;8.75;3.83;;;;;;;7.96;66.84;102081.13;5033751;28;20041;-60
2022/04/28 03:01:25;;;;;;;6.78;3.97;;;;;;;7.96;66.49;102084.56;5052464;28;20048;-60
2022/04/28 03:03:54;;;;;;;8.07;4.13;;;;;;;7.98;67.04;102088.06;5053375;28;20053;-60
2022/04/28 03:11:53;;;;;;;8.93;4.53;;;;;;;8.02;67.67;102087.28;5052751;28;20056;-60
2022/04/28 03:14:22;;;;;;;13.85;6.68;;;;;;;8.05;67.51;102087.38;5052574;28;20060;-60
2022/04/28 03:16:51;;;;;;;12.90;6.30;;;;;;;8.05;67.46;102082.19;5052949;28;20105;-60
2022/04/28 03:19:19;;;;;;;12.05;6.53;;;;;;;8.07;67.64;102090.84;5052618;28;20049;-60
2022/04/28 03:21:46;;;;;;;12.60;6.30;;;;;;;8.08;67.59;102082.25;5053491;28;20061;-59
2022/04/28 03:24:14;;;;;;;10.15;5.63;;;;;;;8.09;67.63;102088.31;5050870;28;20064;-59
2022/04/28 03:26:42;;;;;;;11.73;5.28;;;;;;;8.10;67.59;102093.50;5033505;28;20045;-58
2022/04/28 03:29:09;;;;;;;8.32;4.60;;;;;;;8.12;67.66;102083.22;5033267;28;20054;-59
2022/04/28 03:31:35;;;;;;;9.00;4.20;;;;;;;8.13;67.08;102085.81;5033307;28;20064;-58
2022/04/28 03:34:03;;;;;;;9.93;4.30;;;;;;;8.15;66.64;102089.31;5033430;28;20064;-58
2022/04/28 03:39:13;;;;;;;9.82;5.85;;;;;;;8.16;67.26;102096.22;5033109;28;20056;-60
2022/04/28 03:41:40;;;;;;;9.32;5.88;;;;;;;8.18;66.95;102094.56;5050923;28;20047;-60
2022/04/28 03:44:08;;;;;;;10.82;4.68;;;;;;;8.18;67.16;102094.56;5042027;28;20053;-59
2022/04/28 03:46:36;;;;;;;8.15;3.90;;;;;;;8.20;67.20;102095.47;5032628;28;20458;-60
2022/04/28 03:49:04;;;;;;;7.72;3.67;;;;;;;8.22;66.35;102096.38;5041412;28;20060;-60
2022/04/28 03:51:31;;;;;;;7.85;4.10;;;;;;;8.24;66.48;102104.16;5052938;28;20057;-60
2022/04/28 03:54:00;;;;;;;8.15;3.67;;;;;;;8.27;66.51;102100.75;5053161;28;20060;-59
2022/04/28 03:56:29;;;;;;;8.90;3.85;;;;;;;8.29;66.67;102106.84;5052556;28;20056;-60
2022/04/28 03:58:56;;;;;;;5.85;2.83;;;;;;;8.31;65.80;102111.19;5052415;28;20386;-58
2022/04/28 04:01:24;;;;;;;6.65;2.45;;;;;;;8.33;65.33;102104.41;5052486;28;20044;-58
2022/04/28 04:03:52;;;;;;;6.10;2.90;;;;;;;8.36;65.56;102103.63;5053046;28;20151;-60
2022/04/28 04:06:20;;;;;;;5.40;2.28;;;;;;;8.38;64.98;102112.28;5052492;28;20059;-60
2022/04/28 04:08:49;;;;;;;6.82;2.17;;;;;;;8.40;64.70;102110.59;5052744;28;20053;-60
2022/04/28 04:11:17;;;;;;;6.68;1.63;;;;;;;8.42;64.14;102109.78;5052704;28;20049;-60
2022/04/28 04:13:46;;;;;;;5.18;1.65;;;;;;;8.42;64.38;102111.50;5052778;28;20061;-60
2022/04/28 04:16:13;;;;;;;5.25;1.35;;;;;;;8.43;64.05;102108.09;5052839;28;20049;-60
2022/04/28 04:18:41;;;;;;;2.08;0.82;;;;;;;8.46;64.19;102115.91;5052909;28;20085;-60
2022/04/28 04:21:09;;;;;;;4.68;1.20;;;;;;;8.49;64.15;102111.66;5052590;28;20052;-60
2022/04/28 04:23:39;;;;;;;3.25;1.13;;;;;;;8.54;63.86;102120.41;5053059;28;20080;-60
2022/04/28 04:26:07;;;;;;;3.33;1.02;;;;;;;8.58;63.97;102111.00;5038650;28;20073;-60
2022/04/28 04:28:35;;;;;;;3.38;1.90;;;;;;;8.64;63.06;102113.72;5036766;28;20053;-60
2022/04/28 04:33:47;;;;;;;2.70;0.90;;;;;;;8.68;62.32;102112.06;5036584;28;20103;-60
2022/04/28 04:36:15;;;;;;;2.25;1.05;;;;;;;8.71;61.93;102107.81;5036326;28;20049;-59
2022/04/28 04:38:46;;;;;;;3.47;0.90;;;;;;;8.73;61.99;102108.72;5036354;28;20493;-60
2022/04/28 04:41:14;;;;;;;1.90;0.90;;;;;;;8.77;61.89;102113.13;5050278;28;20084;-60
2022/04/28 04:43:41;;;;;;;1.80;0.80;;;;;;;8.79;62.15;102121.78;5048940;28;20061;-59
2022/04/28 04:46:09;;;;;;;4.97;1.60;;;;;;;8.82;61.66;102115.81;5051691;28;20095;-60
2022/04/28 04:48:37;;;;;;;4.43;2.00;;;;;;;8.89;61.93;102122.00;5056299;28;20068;-60
2022/04/28 04:51:04;;;;;;;8.80;3.90;;;;;;;9.01;61.72;102122.25;5056016;28;20052;-60
2022/04/28 04:53:32;;;;;;;5.65;2.30;;;;;;;9.18;60.76;102120.84;5056198;28;20049;-60
2022/04/28 04:56:02;;;;;;;5.28;1.90;;;;;;;9.41;60.36;102124.78;5056304;28;20060;-62
2022/04/28 04:58:28;;;;;;;5.40;1.50;;;;;;;9.65;60.10;102118.28;5055679;28;20593;-62
2022/04/28 05:00:56;;;;;;;1.60;0.88;;;;;;;9.90;59.79;102123.06;5055710;28;20059;-62
2022/04/28 05:03:22;;;;;;;1.58;0.80;;;;;;;10.13;59.11;102124.28;5055590;28;20049;-62
2022/04/28 05:05:50;;;;;;;3.13;0.85;;;;;;;10.36;58.46;102128.97;5055758;28;20080;-62
2022/04/28 05:08:17;;;;;;;3.55;1.00;;;;;;;10.59;57.36;102119.81;5055523;28;20441;-62
2022/04/28 05:10:44;;;;;;;1.35;0.95;;;;;;;10.82;56.79;102122.69;5055906;28;20049;-62
2022/04/28 05:13:12;;;;;;;2.85;0.88;;;;;;;11.10;56.19;102126.50;5055457;28;20466;-62
2022/04/28 05:15:47;;;;;;;1.83;0.75;;;;;;;11.32;54.93;102125.88;5055743;28;20080;-62
2022/04/28 05:18:14;;;;;;;2.40;1.00;;;;;;;11.54;54.31;102120.94;5055366;28;20884;-62
2022/04/28 05:20:40;;;;;;;1.75;0.85;;;;;;;11.74;53.22;102126.31;5055710;28;20389;-62
2022/04/28 05:23:08;;;;;;;3.28;0.98;;;;;;;11.88;52.92;102130.78;5055655;28;20049;-62
2022/04/28 05:25:36;;;;;;;2.05;0.82;;;;;;;12.06;52.45;102131.84;5055413;28;20077;-60
2022/04/28 05:28:04;;;;;;;1.85;0.80;;;;;;;12.25;51.65;102134.56;5054189;28;20045;-59
2022/04/28 05:30:33;;;;;;;2.50;0.77;;;;;;;12.43;51.16;102131.22;5054774;28;20497;-58
2022/04/28 05:33:01;;;;;;;2.70;0.80;;;;;;;12.58;50.66;102133.94;5055350;28;20049;-60
2022/04/28 05:35:32;;;;;;;6.47;1.30;;;;;;;12.75;50.21;102130.53;5054284;28;20060;-60
2022/04/28 05:38:00;;;;;;;1.75;0.95;;;;;;;12.97;49.49;102127.16;5047095;28;20104;-60
2022/04/28 05:40:28;;;;;;;2.38;0.70;;;;;;;13.17;48.88;102130.75;5057895;28;20045;-60
2022/04/28 05:45:47;;;;;;;3.75;1.00;;;;;;;13.48;47.38;102130.81;5034798;28;20413;-60
2022/04/28 05:48:15;;;;;;;1.63;0.80;;;;;;;13.60;47.20;102130.88;5035201;28;20088;-60
2022/04/28 05:50:42;;;;;;;1.77;0.90;;;;;;;13.76;46.68;102136.94;5034867;28;20054;-60
2022/04/28 05:53:11;;;;;;;2.03;1.08;;;;;;;13.87;46.35;102141.31;5034637;28;20509;-60
2022/04/28 05:55:39;;;;;;;4.70;2.67;;;;;;;13.99;46.15;102149.97;5034681;28;20049;-60
2022/04/28 05:58:07;;;;;;;2.97;1.27;;;;;;;14.14;45.74;102152.63;5034792;28;20068;-60
2022/04/28 06:00:34;;;;;;;5.82;1.33;;;;;;;14.29;45.12;102155.19;5034685;28;20046;-60
2022/04/28 06:03:03;;;;;;;3.30;0.80;;;;;;;14.42;44.70;102151.72;5034513;28;20340;-60
2022/04/28 06:05:31;;;;;;;3.13;0.90;;;;;;;14.52;44.55;102148.22;5036532;28;20116;-59
2022/04/28 06:07:58;;;;;;;2.45;0.93;;;;;;;14.65;43.76;102154.31;5047834;28;20393;-59
2022/04/28 06:10:26;;;;;;;2.75;0.80;;;;;;;14.80;43.51;102150.78;5031887;28;20078;-58
2022/04/28 06:12:53;;;;;;;4.63;0.90;;;;;;;14.91;42.77;102146.38;5045368;28;20048;-57
2022/04/28 06:15:21;;;;;;;3.22;1.27;;;;;;;14.96;42.22;102151.59;5074073;28;20491;-58
2022/04/28 06:17:49;;;;;;;1.52;0.93;;;;;;;15.00;42.41;102148.09;5067654;28;20087;-61
2022/04/28 06:20:18;;;;;;;2.42;0.90;;;;;;;15.13;42.28;102153.28;5087491;28;20056;-59
2022/04/28 06:22:46;;;;;;;3.10;1.05;;;;;;;15.20;42.43;102150.63;5073637;28;20068;-57
2022/04/28 06:25:14;;;;;;;3.33;0.80;;;;;;;15.26;41.44;102151.47;5088951;28;20048;-58
2022/04/28 06:27:43;;;;;;;2.00;1.02;;;;;;;15.34;41.10;102152.28;5066306;28;20044;-58
2022/04/28 06:30:11;;;;;;;2.08;0.90;;;;;;;15.47;41.24;102147.84;5076333;28;20180;-56
2022/04/28 06:32:38;;;;;;;3.05;0.70;;;;;;;15.59;41.29;102152.16;5081050;28;20047;-57
2022/04/28 06:35:08;;;;;;;2.05;0.93;;;;;;;15.75;41.45;102154.69;5073897;28;20048;-55
2022/04/28 06:37:38;;;;;;;2.83;1.30;;;;;;;15.92;40.24;102153.69;5090032;28;20062;-56
2022/04/28 06:40:10;;;;;;;3.53;1.33;;;;;;;16.04;40.52;102154.44;5077745;28;20047;-56
2022/04/28 06:42:38;;;;;;;4.32;1.25;;;;;;;16.12;40.08;102159.63;5082742;28;20044;-57
2022/04/28 06:45:06;;;;;;;4.53;1.33;;;;;;;16.22;39.77;102160.44;5073476;28;20455;-57
2022/04/28 06:47:34;;;;;;;3.80;1.33;;;;;;;16.30;38.70;102164.69;5087003;28;20055;-58
2022/04/28 06:50:01;;;;;;;2.70;1.10;;;;;;;16.35;39.04;102162.03;5076878;28;20048;-58
2022/04/28 06:52:27;;;;;;;3.67;1.23;;;;;;;16.40;39.25;102163.72;5070673;28;20047;-58
2022/04/28 06:54:55;;;;;;;7.78;1.55;;;;;;;16.50;38.94;102171.47;5081465;28;20056;-58
2022/04/28 06:57:21;;;;;;;2.80;1.05;;;;;;;16.65;38.10;102167.00;5088736;28;20078;-58
2022/04/28 06:59:48;;;;;;;1.77;0.70;;;;;;;16.73;38.00;102169.53;5076742;28;20388;-55
2022/04/28 07:02:15;;;;;;;1.75;0.70;;;;;;;16.81;37.77;102170.31;5086299;28;20055;-56
2022/04/28 07:04:43;;;;;;;1.98;0.80;;;;;;;16.91;37.51;102174.56;5082554;28;20445;-56
2022/04/28 07:07:11;;;;;;;2.50;0.98;;;;;;;17.07;37.17;102171.75;5092045;28;20052;-58
2022/04/28 07:09:38;;;;;;;2.53;0.80;;;;;;;17.19;36.63;102176.88;5076172;28;20063;-60
2022/04/28 07:12:08;;;;;;;1.52;0.80;;;;;;;17.29;35.70;102175.84;5083818;28;20052;-57
2022/04/28 07:14:39;;;;;;;2.25;0.80;;;;;;;17.32;35.71;102175.81;5086419;28;20491;-58
2022/04/28 07:17:13;;;;;;;1.38;0.60;;;;;;;17.34;35.14;102174.03;5078900;28;20450;-59
2022/04/28 07:19:41;;;;;;;2.92;0.80;;;;;;;17.37;35.11;102176.63;5089470;28;20044;-58
2022/04/28 07:22:16;;;;;;;1.65;0.85;;;;;;;17.41;34.35;102174.81;5077806;28;20058;-56
2022/04/28 07:24:43;;;;;;;1.58;0.85;;;;;;;17.40;34.74;102180.94;5080175;28;20717;-58
2022/04/28 07:27:18;;;;;;;2.85;0.90;;;;;;;17.42;34.26;102177.41;5065709;28;20056;-57
2022/04/28 07:29:45;;;;;;;4.73;1.30;;;;;;;17.46;35.07;102179.09;5055342;28;20056;-59
2022/04/28 07:32:12;;;;;;;2.00;0.90;;;;;;;17.55;34.66;102184.22;5060044;28;20357;-59
2022/04/28 07:34:42;;;;;;;5.43;1.35;;;;;;;17.67;33.62;102184.06;5074827;28;20059;-56
2022/04/28 07:37:08;;;;;;;6.55;1.30;;;;;;;17.88;32.95;102182.91;5072879;28;20065;-57
2022/04/28 07:39:36;;;;;;;4.15;1.52;;;;;;;18.03;32.93;102176.53;5079266;28;20056;-61
2022/04/28 07:42:03;;;;;;;5.75;1.92;;;;;;;18.08;32.81;102195.69;5074744;28;20056;-61
2022/04/28 07:44:31;;;;;;;3.47;1.38;;;;;;;17.96;33.05;102190.63;5072958;28;20053;-61
2022/04/28 07:46:57;;;;;;;8.02;1.80;;;;;;;17.91;33.00;102187.22;5077381;28;20346;-62
2022/04/28 07:49:25;;;;;;;2.35;1.00;;;;;;;17.99;31.96;102190.59;5082550;28;20059;-62
2022/04/28 07:51:53;;;;;;;2.63;0.98;;;;;;;18.16;31.46;102191.19;5086167;28;20062;-63
2022/04/28 07:54:19;;;;;;;2.90;1.00;;;;;;;18.29;30.56;102195.34;5082277;28;20056;-58
2022/04/28 07:56:47;;;;;;;1.92;0.80;;;;;;;18.42;30.24;102197.75;5071412;28;20048;-60
2022/04/28 07:59:15;;;;;;;1.92;0.93;;;;;;;18.55;29.27;102196.63;5085071;28;20087;-59
2022/04/28 08:01:44;;;;;;;1.20;0.52;;;;;;;18.64;27.74;102195.63;5088273;28;20534;-58
2022/04/28 08:04:12;;;;;;;0.85;0.40;;;;;;;18.73;26.19;102198.06;5081100;28;20060;-60
2022/04/28 08:06:40;;;;;;;3.72;0.75;;;;;;;18.86;25.50;102189.97;5076585;28;20060;-58
2022/04/28 08:09:08;;;;;;;2.58;0.63;;;;;;;19.00;25.57;102199.31;5076166;28;20045;-59
2022/04/28 08:11:36;;;;;;;1.70;0.90;;;;;;;19.15;25.09;102206.88;5074825;28;20476;-59
2022/04/28 08:14:02;;;;;;;2.38;1.00;;;;;;;19.13;24.28;102200.78;5075318;28;20140;-59
2022/04/28 08:16:34;;;;;;;2.33;0.88;;;;;;;19.23;23.97;102205.81;5062986;28;20049;-60
2022/04/28 08:19:03;;;;;;;1.30;0.40;;;;;;;19.35;23.99;102201.22;5065282;28;20048;-60
2022/04/28 08:21:31;;;;;;;1.30;0.80;;;;;;;19.41;23.73;102207.22;5056959;28;20081;-60
2022/04/28 08:23:58;;;;;;;2.25;0.90;;;;;;;19.45;24.09;102198.38;5075976;28;20045;-60
2022/04/28 08:26:25;;;;;;;1.50;0.80;;;;;;;19.53;23.89;102201.72;5076438;28;20069;-59
2022/04/28 08:28:53;;;;;;;2.83;1.02;;;;;;;19.62;23.72;102197.16;5076602;28;20497;-59
2022/04/28 08:31:19;;;;;;;1.65;0.60;;;;;;;19.64;23.41;102192.72;5076573;28;20052;-58
2022/04/28 08:33:47;;;;;;;1.73;0.70;;;;;;;19.75;23.32;102195.97;5076603;28;20048;-60
2022/04/28 08:36:17;;;;;;;3.70;0.73;;;;;;;19.68;23.34;102194.38;5061542;28;20736;-60
2022/04/28 08:38:44;;;;;;;2.75;0.90;;;;;;;19.57;24.35;102196.38;5072142;28;20059;-61
2022/04/28 08:41:14;;;;;;;1.80;0.63;;;;;;;19.52;24.73;102197.34;5072387;28;20662;-59
2022/04/28 08:43:43;;;;;;;3.22;0.90;;;;;;;19.45;23.94;102198.38;5059730;28;20049;-60
2022/04/28 08:48:57;;;;;;;;;;;;;;;19.15;23.10;102191.97;5064610;28;20401;-60
2022/04/28 08:51:26;;;;;;;9.13;1.08;;;;;;;18.98;24.50;102195.84;5063701;28;19921;-60
2022/04/28 08:53:54;;;;;;;3.90;1.27;;;;;;;18.94;24.79;102195.06;5071406;28;20106;-60
2022/04/28 08:56:24;;;;;;;2.72;1.45;;;;;;;18.98;24.70;102196.72;5058033;28;20045;-60
2022/04/28 08:58:50;;;;;;;6.25;1.50;;;;;;;18.92;23.37;102200.34;5064156;28;20051;-60
2022/04/28 09:01:17;;;;;;;4.28;1.25;;;;;;;18.73;23.22;102193.72;5064488;28;20061;-60
2022/04/28 09:03:44;;;;;;;3.97;1.40;;;;;;;18.38;22.99;102203.94;5060307;28;20505;-60
2022/04/28 09:06:17;;;;;;;4.40;1.60;;;;;;;17.84;23.49;102193.47;5063914;28;20052;-60
2022/04/28 09:08:46;;;;;;;6.43;1.40;;;;;;;17.61;24.31;102194.63;5075638;28;20044;-60
2022/04/28 09:11:20;;;;;;;6.88;1.63;;;;;;;17.35;23.83;102197.59;5056139;28;20076;-60
2022/04/28 09:16:35;;;;;;;2.97;1.40;;;;;;;17.08;24.44;102204.94;5044663;28;20084;-59
2022/04/28 09:19:01;;;;;;;9.60;1.90;;;;;;;17.16;24.50;102200.47;5040529;28;20045;-60
2022/04/28 09:21:28;;;;;;;7.95;2.00;;;;;;;16.99;24.20;102208.53;5036307;28;20536;-60
2022/04/28 09:23:56;;;;;;;5.28;1.92;;;;;;;16.91;25.00;102206.00;5055567;28;20096;-60
2022/04/28 09:26:24;;;;;;;8.38;1.48;;;;;;;17.00;25.48;102200.66;5049309;28;20052;-58
2022/04/28 09:28:50;;;;;;;3.55;1.27;;;;;;;17.23;25.41;102196.91;5046776;28;20075;-59
2022/04/28 09:31:18;;;;;;;4.57;1.75;;;;;;;17.49;25.83;102197.41;5055205;28;20052;-60
2022/04/28 09:33:46;;;;;;;7.13;1.60;;;;;;;17.56;25.37;102201.69;5045854;28;20065;-60
2022/04/28 09:36:14;;;;;;;6.53;1.90;;;;;;;17.20;25.81;102202.19;5035046;28;20061;-59
2022/04/28 09:38:40;;;;;;;4.28;1.67;;;;;;;17.27;26.19;102203.84;5049009;28;20041;-59
2022/04/28 09:43:56;;;;;;;7.15;1.60;;;;;;;17.33;26.64;102199.38;5035113;28;20060;-59
2022/04/28 09:46:23;;;;;;;6.82;1.80;;;;;;;17.16;26.84;102206.56;5039179;28;20160;-54
2022/04/28 09:48:51;;;;;;;4.93;1.60;;;;;;;16.85;27.56;102199.97;5050525;28;20406;-58
2022/04/28 09:51:22;;;;;;;4.60;1.30;;;;;;;16.82;28.23;102200.88;5064524;28;20056;-58
2022/04/28 09:53:49;;;;;;;6.32;1.67;;;;;;;16.94;28.44;102205.97;5071603;28;20396;-58
2022/04/28 09:56:17;;;;;;;9.02;1.50;;;;;;;16.83;28.82;102207.84;5050202;28;20061;-59
2022/04/28 09:58:44;;;;;;;6.55;1.40;;;;;;;16.73;29.08;102208.81;5054365;28;20057;-58
2022/04/28 10:01:10;;;;;;;7.07;1.80;;;;;;;16.73;29.15;102206.19;5056119;28;20071;-59
2022/04/28 10:03:40;;;;;;;5.88;1.60;;;;;;;16.57;29.23;102204.56;5060753;28;20053;-58
2022/04/28 10:06:07;;;;;;;8.50;1.95;;;;;;;16.29;29.89;102204.84;5063201;28;20517;-58
2022/04/28 10:08:35;;;;;;;8.18;1.40;;;;;;;16.28;30.55;102208.34;5070511;28;20477;-59
2022/04/28 10:11:03;;;;;;;8.38;2.05;;;;;;;16.49;30.43;102204.66;5061233;28;20369;-59
2022/04/28 10:13:32;;;;;;;3.65;1.30;;;;;;;16.63;29.67;102204.50;5067365;28;20060;-59
2022/04/28 10:16:01;;;;;;;7.15;1.60;;;;;;;16.72;29.61;102201.84;5072918;28;20049;-60
2022/04/28 10:18:36;;;;;;;5.85;1.40;;;;;;;16.91;29.62;102206.00;5055421;28;20048;-57
2022/04/28 10:21:05;;;;;;;6.40;1.40;;;;;;;16.85;29.88;102213.91;5062598;28;20072;-55
2022/04/28 10:35:07;;;;;;;5.90;1.58;;;;;;;16.21;29.77;102211.88;5063809;28;20055;-56
2022/04/28 10:37:35;;;;;;;4.43;1.85;;;;;;;16.21;30.28;102206.66;5086718;28;20086;-54
2022/04/28 10:40:03;;;;;;;7.90;1.67;;;;;;;16.27;30.10;102217.06;5073350;28;20500;-58
2022/04/28 10:43:01;;;;;;;3.05;1.45;;;;;;;16.14;29.11;102210.19;5061515;28;20105;-61
2022/04/28 10:45:40;;;;;;;3.88;1.60;;;;;;;15.91;29.97;102207.72;5073697;28;20048;-57
2022/04/28 10:48:28;;;;;;;6.82;1.70;;;;;;;15.76;30.54;102203.47;5066995;28;20076;-57
2022/04/28 10:51:16;;;;;;;6.38;1.50;;;;;;;15.61;29.62;102215.78;5065876;28;20082;-55
2022/04/28 10:54:09;;;;;;;5.60;1.60;;;;;;;15.58;30.76;102206.19;5061586;28;20064;-57
2022/04/28 10:57:00;;;;;;;8.88;1.63;;;;;;;15.52;30.15;102213.16;5057605;28;20080;-57
2022/04/28 10:59:34;;;;;;;7.15;1.33;;;;;;;15.31;30.80;102203.69;5073314;28;20063;-54
2022/04/28 11:02:40;;;;;;;6.53;1.38;;;;;;;15.38;30.76;102211.50;5089105;28;20052;-56
2022/04/28 11:05:35;;;;;;;7.28;1.25;;;;;;;15.31;31.03;102203.69;5072771;28;20065;-56
2022/04/28 11:08:02;;;;;;;11.97;1.50;;;;;;;15.29;31.40;102206.31;5084435;28;20468;-57
2022/04/28 11:10:28;;;;;;;8.32;1.80;;;;;;;15.31;30.79;102195.84;5076933;28;20067;-53
2022/04/28 11:12:55;;;;;;;6.43;1.98;;;;;;;15.25;30.68;102198.50;5087762;28;20087;-59
2022/04/28 11:15:23;;;;;;;7.50;1.88;;;;;;;15.12;30.96;102203.78;5063812;28;20513;-58
2022/04/28 11:17:51;;;;;;;10.27;1.83;;;;;;;15.04;31.40;102205.53;5051134;28;20073;-58
2022/04/28 11:20:21;;;;;;;6.32;1.58;;;;;;;15.12;31.80;102201.16;5050747;28;20064;-56
2022/04/28 11:22:51;;;;;;;4.80;1.45;;;;;;;15.10;31.25;102209.88;5053192;28;20045;-56
2022/04/28 11:25:19;;;;;;;8.40;1.63;;;;;;;14.83;31.82;102210.81;5037533;28;20049;-53
2022/04/28 11:27:48;;;;;;;6.85;1.60;;;;;;;14.83;32.27;102210.81;5043591;28;20046;-61
2022/04/28 11:30:17;;;;;;;4.47;1.40;;;;;;;14.79;32.29;102203.88;5047900;28;20060;-59
2022/04/28 11:32:49;;;;;;;6.55;1.30;;;;;;;14.84;32.18;102209.94;5052380;28;20060;-58
2022/04/28 11:35:17;;;;;;;3.88;1.50;;;;;;;15.03;32.02;102208.13;5063623;28;20052;-59
2022/04/28 11:37:44;;;;;;;5.93;1.50;;;;;;;15.22;31.84;102208.97;5065033;28;20053;-58
2022/04/28 11:40:14;;;;;;;3.15;1.02;;;;;;;15.39;31.00;102201.91;5056774;28;20049;-59
2022/04/28 11:42:41;;;;;;;2.28;1.10;;;;;;;15.59;31.12;102200.06;5068316;28;20056;-58
2022/04/28 11:45:08;;;;;;;6.10;1.48;;;;;;;15.76;31.40;102200.88;5054682;28;20037;-59
2022/04/28 11:47:42;;;;;;;5.45;1.60;;;;;;;15.76;30.90;102215.69;5064528;28;20080;-59
2022/04/28 11:50:17;;;;;;;12.73;1.92;;;;;;;15.65;31.26;102205.31;5050973;28;20045;-58
2022/04/28 11:52:45;;;;;;;2.75;1.13;;;;;;;15.42;30.58;102207.13;5046934;28;20060;-58
2022/04/28 11:55:12;;;;;;;3.05;1.45;;;;;;;15.45;30.66;102207.09;5064272;28;20063;-59
2022/04/28 11:57:39;;;;;;;4.13;1.45;;;;;;;15.59;31.27;102205.31;5065146;28;20135;-59
2022/04/28 12:00:08;;;;;;;8.07;1.65;;;;;;;15.57;30.79;102207.03;5045834;28;20049;-59
2022/04/28 12:02:36;;;;;;;5.78;2.15;;;;;;;15.45;31.67;102199.25;5047155;28;20044;-57
2022/04/28 12:05:05;;;;;;;7.43;1.85;;;;;;;15.48;32.09;102207.09;5065586;28;20053;-58
2022/04/28 12:07:34;;;;;;;7.70;2.25;;;;;;;15.55;32.54;102197.47;5052700;28;20143;-58
2022/04/28 12:15:32;;;;;;;5.55;1.55;;;;;;;15.42;31.76;102194.06;5070196;28;20030;-58
2022/04/28 12:20:54;;;;;;;16.40;2.75;;;;;;;15.52;31.59;102195.72;5054737;28;20119;-59
2022/04/28 12:23:34;;;;;;;10.55;2.63;;;;;;;15.45;32.14;102186.19;5077724;28;20056;-57